createdAt,value
2018-08-06T00:00:41.546Z,20.60
2018-08-06T00:03:10.222Z,20.60
2018-08-06T00:05:38.626Z,20.57
2018-08-06T00:08:07.531Z,20.53
2018-08-06T00:10:35.930Z,20.46
2018-08-06T00:13:04.355Z,20.40
2018-08-06T00:15:32.719Z,20.33
2018-08-06T00:18:01.114Z,20.27
2018-08-06T00:20:29.493Z,20.25
2018-08-06T00:22:57.901Z,20.22
2018-08-06T00:25:26.274Z,20.20
2018-08-06T00:27:54.673Z,20.16
2018-08-06T00:30:23.062Z,20.13
2018-08-06T00:32:51.622Z,20.08
2018-08-06T00:35:20.189Z,20.05
2018-08-06T00:37:48.599Z,20.02
2018-08-06T00:40:18.683Z,19.97
2018-08-06T00:42:47.706Z,19.94
2018-08-06T00:45:18.139Z,19.91
2018-08-06T00:47:47.018Z,19.88
2018-08-06T00:50:15.398Z,19.85
2018-08-06T00:52:43.800Z,19.79
2018-08-06T00:55:14.382Z,19.73
2018-08-06T00:57:43.102Z,19.68
2018-08-06T01:00:13.856Z,19.62
2018-08-06T01:02:42.276Z,19.61
2018-08-06T01:05:11.911Z,19.61
2018-08-06T01:07:40.577Z,19.61
2018-08-06T01:10:11.802Z,19.62
2018-08-06T01:12:40.822Z,19.65
2018-08-06T01:15:10.910Z,19.66
2018-08-06T01:17:39.295Z,19.65
2018-08-06T01:20:09.398Z,19.61
2018-08-06T01:22:37.926Z,19.56
2018-08-06T01:25:06.743Z,19.50
2018-08-06T01:27:35.714Z,19.46
2018-08-06T01:30:04.429Z,19.46
2018-08-06T01:32:32.809Z,19.47
2018-08-06T01:35:01.278Z,19.48
2018-08-06T01:37:29.646Z,19.49
2018-08-06T01:39:58.038Z,19.50
2018-08-06T01:42:26.403Z,19.50
2018-08-06T01:44:54.797Z,19.51
2018-08-06T01:47:23.162Z,19.50
2018-08-06T01:49:51.562Z,19.50
2018-08-06T01:52:19.938Z,19.53
2018-08-06T01:54:48.334Z,19.55
2018-08-06T01:57:16.707Z,19.57
2018-08-06T01:59:45.106Z,19.56
2018-08-06T02:02:13.473Z,19.55
2018-08-06T02:04:41.875Z,19.52
2018-08-06T02:07:10.386Z,19.48
2018-08-06T02:09:38.993Z,19.45
2018-08-06T02:12:07.760Z,19.43
2018-08-06T02:14:36.193Z,19.39
2018-08-06T02:17:04.575Z,19.36
2018-08-06T02:19:32.974Z,19.33
2018-08-06T02:22:01.353Z,19.31
2018-08-06T02:24:29.810Z,19.27
2018-08-06T02:26:58.190Z,19.23
2018-08-06T02:29:26.582Z,19.19
2018-08-06T02:31:55.010Z,19.16
2018-08-06T02:34:23.458Z,19.10
2018-08-06T02:36:51.834Z,19.00
2018-08-06T02:39:20.250Z,18.95
2018-08-06T02:41:48.631Z,18.91
2018-08-06T02:44:17.037Z,18.88
2018-08-06T02:46:45.421Z,18.87
2018-08-06T02:49:13.823Z,18.85
2018-08-06T02:51:42.240Z,18.79
2018-08-06T02:54:10.637Z,18.74
2018-08-06T02:56:39.082Z,18.68
2018-08-06T02:59:07.513Z,18.62
2018-08-06T03:01:35.902Z,18.55
2018-08-06T03:04:04.304Z,18.45
2018-08-06T03:06:32.686Z,18.39
2018-08-06T03:09:01.102Z,18.33
2018-08-06T03:11:29.505Z,18.32
2018-08-06T03:13:57.886Z,18.33
2018-08-06T03:16:26.286Z,18.31
2018-08-06T03:18:54.806Z,18.33
2018-08-06T03:21:23.198Z,18.36
2018-08-06T03:23:51.590Z,18.40
2018-08-06T03:26:20.004Z,18.43
2018-08-06T03:28:48.395Z,18.44
2018-08-06T03:31:16.790Z,18.44
2018-08-06T03:33:45.172Z,18.45
2018-08-06T03:36:13.570Z,18.44
2018-08-06T03:38:41.954Z,18.42
2018-08-06T03:41:10.358Z,18.38
2018-08-06T03:43:38.734Z,18.38
2018-08-06T03:46:07.146Z,18.38
2018-08-06T03:48:35.521Z,18.38
2018-08-06T03:51:03.914Z,18.43
2018-08-06T03:53:32.291Z,18.46
2018-08-06T03:56:00.714Z,18.48
2018-08-06T03:58:29.098Z,18.47
2018-08-06T04:00:57.500Z,18.45
2018-08-06T04:03:25.892Z,18.41
2018-08-06T04:05:54.291Z,18.37
2018-08-06T04:08:22.693Z,18.34
2018-08-06T04:10:51.115Z,18.31
2018-08-06T04:13:19.490Z,18.38
2018-08-06T04:15:47.878Z,18.50
2018-08-06T04:18:16.250Z,18.60
2018-08-06T04:20:44.641Z,18.62
2018-08-06T04:23:13.019Z,18.66
2018-08-06T04:25:41.437Z,18.76
2018-08-06T04:28:09.851Z,18.89
2018-08-06T04:30:38.358Z,19.04
2018-08-06T04:33:06.798Z,19.11
2018-08-06T04:35:35.166Z,19.16
2018-08-06T04:38:03.656Z,19.19
2018-08-06T04:40:32.050Z,19.19
2018-08-06T04:43:00.422Z,19.19
2018-08-06T04:45:28.840Z,19.18
2018-08-06T04:47:57.210Z,19.15
2018-08-06T04:50:25.614Z,19.11
2018-08-06T04:52:53.998Z,19.09
2018-08-06T04:55:22.421Z,19.07
2018-08-06T04:57:50.806Z,19.06
2018-08-06T05:00:19.207Z,19.07
2018-08-06T05:02:47.587Z,19.05
2018-08-06T05:05:15.994Z,19.05
2018-08-06T05:07:44.457Z,19.07
2018-08-06T05:10:12.858Z,19.07
2018-08-06T05:12:41.271Z,19.07
2018-08-06T05:15:09.664Z,19.07
2018-08-06T05:17:38.059Z,19.10
2018-08-06T05:20:06.435Z,19.14
2018-08-06T05:22:34.830Z,19.17
2018-08-06T05:25:03.218Z,19.20
2018-08-06T05:27:31.605Z,19.25
2018-08-06T05:29:59.979Z,19.29
2018-08-06T05:32:30.102Z,19.35
2018-08-06T05:34:58.478Z,19.42
2018-08-06T05:37:26.870Z,19.49
2018-08-06T05:39:55.269Z,19.54
2018-08-06T05:42:23.699Z,19.57
2018-08-06T05:44:52.082Z,19.58
2018-08-06T05:47:20.623Z,19.59
2018-08-06T05:49:48.989Z,19.64
2018-08-06T05:52:17.391Z,19.68
2018-08-06T05:54:45.767Z,19.73
2018-08-06T05:57:14.194Z,19.79
2018-08-06T05:59:42.566Z,19.84
2018-08-06T06:02:10.979Z,19.90
2018-08-06T06:04:39.368Z,19.96
2018-08-06T06:07:07.790Z,20.03
2018-08-06T06:09:36.162Z,20.12
2018-08-06T06:12:04.703Z,20.20
2018-08-06T06:14:33.090Z,20.28
2018-08-06T06:17:01.498Z,20.38
2018-08-06T06:19:29.871Z,20.48
2018-08-06T06:21:58.303Z,20.57
2018-08-06T06:24:26.743Z,20.65
2018-08-06T06:26:55.142Z,20.71
2018-08-06T06:29:23.522Z,20.79
2018-08-06T06:31:51.930Z,20.83
2018-08-06T06:34:20.312Z,20.92
2018-08-06T06:36:48.705Z,21.02
2018-08-06T06:39:17.083Z,21.12
2018-08-06T06:41:45.490Z,21.23
2018-08-06T06:44:13.869Z,21.29
2018-08-06T06:46:42.274Z,21.39
2018-08-06T06:49:10.984Z,21.48
2018-08-06T06:51:39.353Z,21.58
2018-08-06T06:54:07.769Z,21.62
2018-08-06T06:56:36.165Z,21.71
2018-08-06T06:59:04.565Z,21.77
2018-08-06T07:01:32.984Z,21.82
2018-08-06T07:04:01.354Z,21.93
2018-08-06T07:06:29.799Z,22.04
2018-08-06T07:08:58.170Z,22.16
2018-08-06T07:11:26.566Z,22.28
2018-08-06T07:13:55.070Z,22.40
2018-08-06T07:16:23.426Z,22.53
2018-08-06T07:18:51.881Z,22.65
2018-08-06T07:21:20.263Z,22.72
2018-08-06T07:23:48.679Z,22.82
2018-08-06T07:26:17.046Z,22.93
2018-08-06T07:28:45.476Z,22.97
2018-08-06T07:31:13.889Z,23.05
2018-08-06T07:33:42.315Z,23.06
2018-08-06T07:36:10.711Z,23.08
2018-08-06T07:38:39.131Z,23.12
2018-08-06T07:41:07.507Z,23.10
2018-08-06T07:43:35.925Z,23.16
2018-08-06T07:46:04.401Z,23.19
2018-08-06T07:48:32.798Z,23.25
2018-08-06T07:51:01.232Z,23.38
2018-08-06T07:53:29.630Z,23.49
2018-08-06T07:55:58.021Z,23.51
2018-08-06T07:58:26.415Z,23.60
2018-08-06T08:00:54.798Z,23.64
2018-08-06T08:03:23.194Z,23.69
2018-08-06T08:05:51.624Z,23.74
2018-08-06T08:08:20.027Z,23.83
2018-08-06T08:10:48.443Z,23.81
2018-08-06T08:13:16.846Z,23.91
2018-08-06T08:15:45.320Z,23.92
2018-08-06T08:18:13.748Z,24.00
2018-08-06T08:20:42.154Z,24.09
2018-08-06T08:23:10.570Z,24.25
2018-08-06T08:25:38.951Z,24.40
2018-08-06T08:28:07.391Z,24.44
2018-08-06T08:30:35.759Z,24.46
2018-08-06T08:33:04.162Z,24.43
2018-08-06T08:35:33.286Z,24.39
2018-08-06T08:38:01.797Z,24.49
2018-08-06T08:40:30.194Z,24.60
2018-08-06T08:42:58.594Z,24.72
2018-08-06T08:45:27.058Z,24.80
2018-08-06T08:47:55.450Z,24.91
2018-08-06T08:50:23.826Z,25.03
2018-08-06T08:52:52.237Z,25.16
2018-08-06T08:55:21.191Z,25.17
2018-08-06T08:57:49.595Z,25.12
2018-08-06T09:00:20.773Z,25.04
2018-08-06T09:02:49.887Z,25.04
2018-08-06T09:05:18.981Z,25.00
2018-08-06T09:07:47.822Z,25.03
2018-08-06T09:10:17.137Z,25.08
2018-08-06T09:12:45.674Z,25.15
2018-08-06T09:15:21.510Z,25.22
2018-08-06T09:17:49.886Z,25.27
2018-08-06T09:20:18.320Z,25.27
2018-08-06T09:22:47.134Z,25.28
2018-08-06T09:25:15.851Z,25.33
2018-08-06T09:27:47.586Z,25.35
2018-08-06T09:30:25.206Z,25.38
2018-08-06T09:32:54.881Z,25.46
2018-08-06T09:35:23.494Z,25.51
2018-08-06T09:37:52.555Z,25.52
2018-08-06T09:40:22.003Z,25.53
2018-08-06T09:42:50.962Z,25.55
2018-08-06T09:45:20.494Z,25.58
2018-08-06T09:47:50.293Z,25.64
2018-08-06T09:50:19.511Z,25.68
2018-08-06T09:52:48.878Z,25.74
2018-08-06T09:55:20.562Z,25.78
2018-08-06T09:57:49.670Z,25.80
2018-08-06T10:00:24.604Z,25.84
2018-08-06T10:02:53.771Z,25.91
2018-08-06T10:05:23.190Z,25.97
2018-08-06T10:07:51.602Z,26.01
2018-08-06T10:10:20.022Z,26.07
2018-08-06T10:12:48.510Z,26.11
2018-08-06T10:15:17.222Z,26.16
2018-08-06T10:17:46.497Z,26.22
2018-08-06T10:20:17.162Z,26.30
2018-08-06T10:22:45.598Z,26.37
2018-08-06T10:25:14.839Z,26.40
2018-08-06T10:27:44.106Z,26.45
2018-08-06T10:30:14.121Z,26.49
2018-08-06T10:32:42.658Z,26.53
2018-08-06T10:35:12.446Z,26.53
2018-08-06T10:37:40.852Z,26.55
2018-08-06T10:40:12.279Z,26.60
2018-08-06T10:42:41.255Z,26.66
2018-08-06T10:45:13.338Z,26.70
2018-08-06T10:47:42.206Z,26.72
2018-08-06T10:50:10.815Z,26.76
2018-08-06T10:52:39.197Z,26.82
2018-08-06T10:55:08.898Z,26.86
2018-08-06T10:57:37.770Z,26.90
2018-08-06T11:00:15.226Z,26.96
2018-08-06T11:02:43.795Z,27.03
2018-08-06T11:05:13.482Z,27.10
2018-08-06T11:07:41.863Z,27.16
2018-08-06T11:10:13.258Z,27.20
2018-08-06T11:12:41.650Z,27.23
2018-08-06T11:15:13.223Z,27.27
2018-08-06T11:17:41.619Z,27.34
2018-08-06T11:20:11.907Z,27.42
2018-08-06T11:22:40.715Z,27.48
2018-08-06T11:25:11.498Z,27.54
2018-08-06T11:27:39.902Z,27.63
2018-08-06T11:30:16.120Z,27.68
2018-08-06T11:32:44.880Z,27.71
2018-08-06T11:35:13.994Z,27.76
2018-08-06T11:37:42.654Z,27.83
2018-08-06T11:40:12.498Z,27.91
2018-08-06T11:42:41.782Z,28.01
2018-08-06T11:45:12.226Z,28.08
2018-08-06T11:47:40.606Z,28.14
2018-08-06T11:50:09.698Z,28.19
2018-08-06T11:52:38.086Z,28.21
2018-08-06T11:55:07.171Z,28.24
2018-08-06T11:57:35.587Z,28.29
2018-08-06T12:00:06.631Z,28.31
2018-08-06T12:02:35.006Z,28.35
2018-08-06T12:05:03.512Z,28.35
2018-08-06T12:07:31.910Z,28.37
2018-08-06T12:10:00.309Z,28.41
2018-08-06T12:12:28.710Z,28.45
2018-08-06T12:14:57.131Z,28.50
2018-08-06T12:17:25.515Z,28.55
2018-08-06T12:19:53.894Z,28.57
2018-08-06T12:22:22.294Z,28.60
2018-08-06T12:24:50.687Z,28.67
2018-08-06T12:27:19.144Z,28.68
2018-08-06T12:29:47.494Z,28.68
2018-08-06T12:32:15.898Z,28.65
2018-08-06T12:34:44.512Z,28.67
2018-08-06T12:37:12.935Z,28.71
2018-08-06T12:39:41.327Z,28.71
2018-08-06T12:42:09.776Z,28.74
2018-08-06T12:44:38.166Z,28.80
2018-08-06T12:47:06.614Z,28.87
2018-08-06T12:49:34.997Z,28.93
2018-08-06T12:52:03.394Z,28.95
2018-08-06T12:54:31.806Z,29.00
2018-08-06T12:57:00.228Z,29.06
2018-08-06T12:59:28.606Z,29.12
2018-08-06T13:01:57.013Z,29.18
2018-08-06T13:04:25.398Z,29.25
2018-08-06T13:06:53.917Z,29.33
2018-08-06T13:09:22.310Z,29.37
2018-08-06T13:11:50.731Z,29.40
2018-08-06T13:14:19.112Z,29.44
2018-08-06T13:16:47.537Z,29.48
2018-08-06T13:19:15.915Z,29.53
2018-08-06T13:21:44.306Z,29.56
2018-08-06T13:24:12.686Z,29.60
2018-08-06T13:26:41.090Z,29.62
2018-08-06T13:29:09.474Z,29.64
2018-08-06T13:31:37.883Z,29.68
2018-08-06T13:34:06.287Z,29.72
2018-08-06T13:36:34.696Z,29.75
2018-08-06T13:39:03.119Z,29.80
2018-08-06T13:41:31.548Z,29.82
2018-08-06T13:43:59.931Z,29.81
2018-08-06T13:46:28.330Z,29.82
2018-08-06T13:48:56.706Z,29.82
2018-08-06T13:51:25.103Z,29.85
2018-08-06T13:53:53.480Z,29.87
2018-08-06T13:56:21.898Z,29.92
2018-08-06T13:58:50.283Z,29.92
2018-08-06T14:01:18.686Z,29.95
2018-08-06T14:03:47.070Z,29.98
2018-08-06T14:06:15.499Z,30.01
2018-08-06T14:08:43.871Z,30.05
2018-08-06T14:11:12.325Z,30.08
2018-08-06T14:13:40.703Z,30.15
2018-08-06T14:16:09.090Z,30.21
2018-08-06T14:18:37.527Z,30.25
2018-08-06T14:21:05.909Z,30.27
2018-08-06T14:23:34.317Z,30.31
2018-08-06T14:26:02.775Z,30.35
2018-08-06T14:28:31.130Z,30.38
2018-08-06T14:30:59.519Z,30.40
2018-08-06T14:33:27.914Z,30.41
2018-08-06T14:35:56.286Z,30.42
2018-08-06T14:38:24.699Z,30.45
2018-08-06T14:40:53.075Z,30.47
2018-08-06T14:43:21.471Z,30.50
2018-08-06T14:45:49.854Z,30.51
2018-08-06T14:48:18.253Z,30.50
2018-08-06T14:50:46.654Z,30.48
2018-08-06T14:53:15.059Z,30.47
2018-08-06T14:55:43.429Z,30.45
2018-08-06T14:58:11.835Z,30.43
2018-08-06T15:00:40.250Z,30.41
2018-08-06T15:03:08.657Z,30.40
2018-08-06T15:05:37.046Z,30.38
2018-08-06T15:08:05.479Z,30.38
2018-08-06T15:10:33.882Z,30.42
2018-08-06T15:13:02.282Z,30.45
2018-08-06T15:15:30.670Z,30.49
2018-08-06T15:17:59.067Z,30.53
2018-08-06T15:20:27.457Z,30.54
2018-08-06T15:22:55.902Z,30.55
2018-08-06T15:25:24.567Z,30.54
2018-08-06T15:27:53.208Z,30.54
2018-08-06T15:30:21.610Z,30.55
2018-08-06T15:32:50.018Z,30.53
2018-08-06T15:35:18.404Z,30.53
2018-08-06T15:37:46.831Z,30.55
2018-08-06T15:40:17.023Z,30.55
2018-08-06T15:42:45.426Z,30.53
2018-08-06T15:45:14.298Z,30.52
2018-08-06T15:47:43.513Z,30.53
2018-08-06T15:50:13.819Z,30.53
2018-08-06T15:52:42.235Z,30.52
2018-08-06T15:55:10.752Z,30.54
2018-08-06T15:57:39.282Z,30.53
2018-08-06T16:00:10.141Z,30.54
2018-08-06T16:02:38.542Z,30.54
2018-08-06T16:05:07.873Z,30.51
2018-08-06T16:07:36.274Z,30.53
2018-08-06T16:10:05.404Z,30.52
2018-08-06T16:12:33.839Z,30.51
2018-08-06T16:15:02.266Z,30.51
2018-08-06T16:17:30.683Z,30.51
2018-08-06T16:19:59.062Z,30.50
2018-08-06T16:22:27.434Z,30.49
2018-08-06T16:24:55.951Z,30.48
2018-08-06T16:27:24.326Z,30.47
2018-08-06T16:29:52.747Z,30.48
2018-08-06T16:32:21.122Z,30.48
2018-08-06T16:34:49.526Z,30.50
2018-08-06T16:37:17.934Z,30.53
2018-08-06T16:39:46.334Z,30.65
2018-08-06T16:42:14.711Z,30.84
2018-08-06T16:44:43.116Z,31.09
2018-08-06T16:47:11.486Z,31.38
2018-08-06T16:49:39.905Z,31.64
2018-08-06T16:52:08.334Z,31.94
2018-08-06T16:54:36.738Z,32.24
2018-08-06T16:57:05.131Z,32.54
2018-08-06T16:59:33.543Z,32.77
2018-08-06T17:02:01.924Z,32.97
2018-08-06T17:04:30.330Z,33.07
2018-08-06T17:06:58.723Z,33.23
2018-08-06T17:09:27.152Z,33.39
2018-08-06T17:11:55.574Z,33.58
2018-08-06T17:14:23.990Z,33.73
2018-08-06T17:16:53.122Z,33.87
2018-08-06T17:19:21.538Z,33.96
2018-08-06T17:21:49.963Z,34.03
2018-08-06T17:24:18.389Z,34.08
2018-08-06T17:26:46.790Z,34.07
2018-08-06T17:29:15.193Z,34.08
2018-08-06T17:31:43.575Z,33.95
2018-08-06T17:34:11.977Z,33.67
2018-08-06T17:36:40.380Z,33.35
2018-08-06T17:39:10.308Z,33.00
2018-08-06T17:41:38.706Z,32.64
2018-08-06T17:44:07.139Z,32.23
2018-08-06T17:46:35.565Z,31.81
2018-08-06T17:49:04.841Z,31.40
2018-08-06T17:51:33.243Z,31.04
2018-08-06T17:54:01.699Z,30.71
2018-08-06T17:56:30.115Z,30.41
2018-08-06T17:58:58.531Z,30.16
2018-08-06T18:01:26.922Z,29.97
2018-08-06T18:03:55.318Z,29.77
2018-08-06T18:06:23.723Z,29.61
2018-08-06T18:08:52.140Z,29.47
2018-08-06T18:11:20.571Z,29.37
2018-08-06T18:13:49.106Z,29.25
2018-08-06T18:16:17.481Z,29.15
2018-08-06T18:18:45.879Z,29.02
2018-08-06T18:21:14.381Z,28.90
2018-08-06T18:23:42.783Z,28.77
2018-08-06T18:26:11.229Z,28.68
2018-08-06T18:28:39.614Z,28.56
2018-08-06T18:31:08.019Z,28.45
2018-08-06T18:33:36.403Z,28.33
2018-08-06T18:36:04.821Z,28.21
2018-08-06T18:38:33.210Z,28.11
2018-08-06T18:41:01.662Z,28.00
2018-08-06T18:43:30.063Z,27.89
2018-08-06T18:45:58.496Z,27.79
2018-08-06T18:48:26.870Z,27.70
2018-08-06T18:50:55.274Z,27.61
2018-08-06T18:53:23.669Z,27.54
2018-08-06T18:55:52.078Z,27.46
2018-08-06T18:58:20.465Z,27.38
2018-08-06T19:00:48.881Z,27.32
2018-08-06T19:03:17.298Z,27.24
2018-08-06T19:05:45.718Z,27.17
2018-08-06T19:08:14.136Z,27.06
2018-08-06T19:10:42.573Z,26.96
2018-08-06T19:13:16.263Z,26.83
2018-08-06T19:15:44.662Z,26.67
2018-08-06T19:18:18.386Z,26.52
2018-08-06T19:20:46.800Z,26.38
2018-08-06T19:23:15.208Z,26.26
2018-08-06T19:25:43.666Z,26.17
2018-08-06T19:28:12.030Z,26.06
2018-08-06T19:30:45.707Z,25.97
2018-08-06T19:33:14.091Z,25.88
2018-08-06T19:35:42.499Z,25.82
2018-08-06T19:38:10.876Z,25.76
2018-08-06T19:40:39.274Z,25.70
2018-08-06T19:43:13.079Z,25.64
2018-08-06T19:45:41.503Z,25.57
2018-08-06T19:48:09.892Z,25.50
2018-08-06T19:50:40.718Z,25.42
2018-08-06T19:53:09.254Z,25.34
2018-08-06T19:55:43.091Z,25.28
2018-08-06T19:58:11.495Z,25.20
2018-08-06T20:00:39.979Z,25.14
2018-08-06T20:03:08.365Z,25.07
2018-08-06T20:05:36.787Z,24.99
2018-08-06T20:08:05.330Z,24.89
2018-08-06T20:10:33.888Z,24.79
2018-08-06T20:13:02.246Z,24.68
2018-08-06T20:15:30.639Z,24.57
2018-08-06T20:17:59.036Z,24.48
2018-08-06T20:20:27.470Z,24.39
2018-08-06T20:22:55.851Z,24.33
2018-08-06T20:25:24.254Z,24.26
2018-08-06T20:27:52.631Z,24.22
2018-08-06T20:30:22.322Z,24.20
2018-08-06T20:32:50.745Z,24.20
2018-08-06T20:35:19.683Z,24.19
2018-08-06T20:37:48.099Z,24.19
2018-08-06T20:40:16.469Z,24.17
2018-08-06T20:42:45.881Z,24.09
2018-08-06T20:45:15.589Z,23.93
2018-08-06T20:47:44.384Z,23.76
2018-08-06T20:50:15.562Z,23.55
2018-08-06T20:52:44.515Z,23.37
2018-08-06T20:55:12.986Z,23.21
2018-08-06T20:57:41.781Z,23.08
2018-08-06T21:00:17.313Z,22.98
2018-08-06T21:02:46.355Z,22.90
2018-08-06T21:05:14.731Z,22.85
2018-08-06T21:07:43.201Z,22.82
2018-08-06T21:10:13.244Z,22.77
2018-08-06T21:12:41.646Z,22.72
2018-08-06T21:15:11.170Z,22.64
2018-08-06T21:17:39.874Z,22.58
2018-08-06T21:20:09.906Z,22.55
2018-08-06T21:22:38.317Z,22.49
2018-08-06T21:25:07.750Z,22.41
2018-08-06T21:27:36.146Z,22.32
2018-08-06T21:30:06.903Z,22.26
2018-08-06T21:32:35.310Z,22.20
2018-08-06T21:35:03.723Z,22.16
2018-08-06T21:37:32.122Z,22.11
2018-08-06T21:40:00.494Z,22.01
2018-08-06T21:42:28.902Z,21.92
2018-08-06T21:44:57.313Z,21.83
2018-08-06T21:47:25.717Z,21.73
2018-08-06T21:49:54.104Z,21.68
2018-08-06T21:52:22.497Z,21.64
2018-08-06T21:54:50.869Z,21.58
2018-08-06T21:57:19.275Z,21.53
2018-08-06T21:59:47.662Z,21.51
2018-08-06T22:02:16.070Z,21.49
2018-08-06T22:04:44.458Z,21.49
2018-08-06T22:07:12.862Z,21.50
2018-08-06T22:09:41.234Z,21.50
2018-08-06T22:12:09.661Z,21.48
2018-08-06T22:14:38.054Z,21.48
2018-08-06T22:17:06.634Z,21.49
2018-08-06T22:19:35.019Z,21.49
2018-08-06T22:22:03.414Z,21.49
2018-08-06T22:24:31.798Z,21.50
2018-08-06T22:27:00.199Z,21.49
2018-08-06T22:29:28.578Z,21.49
2018-08-06T22:31:56.994Z,21.48
2018-08-06T22:34:25.415Z,21.48
2018-08-06T22:36:53.822Z,21.45
2018-08-06T22:39:22.196Z,21.42
2018-08-06T22:41:50.603Z,21.41
2018-08-06T22:44:18.986Z,21.39
2018-08-06T22:46:47.363Z,21.36
2018-08-06T22:49:15.766Z,21.34
2018-08-06T22:51:44.134Z,21.32
2018-08-06T22:54:12.547Z,21.32
2018-08-06T22:56:40.925Z,21.32
2018-08-06T22:59:09.326Z,21.31
2018-08-06T23:01:37.702Z,21.29
2018-08-06T23:04:06.129Z,21.29
2018-08-06T23:06:34.530Z,21.30
2018-08-06T23:09:02.968Z,21.30
2018-08-06T23:11:31.366Z,21.31
2018-08-06T23:13:59.771Z,21.33
2018-08-06T23:16:28.142Z,21.34
2018-08-06T23:18:56.540Z,21.36
2018-08-06T23:21:24.918Z,21.39
2018-08-06T23:23:53.315Z,21.40
2018-08-06T23:26:21.707Z,21.42
2018-08-06T23:28:50.101Z,21.43
2018-08-06T23:31:18.479Z,21.44
2018-08-06T23:33:46.879Z,21.45
2018-08-06T23:36:15.258Z,21.48
2018-08-06T23:38:43.655Z,21.47
2018-08-06T23:41:12.027Z,21.45
2018-08-06T23:43:40.446Z,21.41
2018-08-06T23:46:08.809Z,21.38
2018-08-06T23:48:37.214Z,21.33
2018-08-06T23:51:05.727Z,21.29
2018-08-06T23:53:34.171Z,21.26
2018-08-06T23:56:02.543Z,21.21
2018-08-06T23:58:30.942Z,21.15
